sensor_id;sensor_type;location;lat;lon;timestamp;pressure;altitude;pressure_sealevel;temperature;humidity
10145;BME280;5113;41.822;23.564;2023-09-12T00:01:57;-11209.56;;;9.95;100.00
10145;BME280;5113;41.822;23.564;2023-09-12T00:05:06;-11214.47;;;10.13;100.00
10145;BME280;5113;41.822;23.564;2023-09-12T00:08:12;-11218.69;;;10.28;100.00
10145;BME280;5113;41.822;23.564;2023-09-12T00:11:19;-11209.13;;;9.93;100.00
10145;BME280;5113;41.822;23.564;2023-09-12T00:14:25;-11213.63;;;10.10;100.00
10145;BME280;5113;41.822;23.564;2023-09-12T00:17:32;-11192.97;;;9.35;100.00
10145;BME280;5113;41.822;23.564;2023-09-12T00:20:40;-11185.50;;;9.08;100.00
10145;BME280;5113;41.822;23.564;2023-09-12T00:23:46;-11196.75;;;9.49;100.00
10145;BME280;5113;41.822;23.564;2023-09-12T00:26:53;-11188.88;;;9.20;100.00
10145;BME280;5113;41.822;23.564;2023-09-12T00:29:59;-11173.28;;;8.64;100.00
10145;BME280;5113;41.822;23.564;2023-09-12T00:33:06;-11173.00;;;8.63;100.00
10145;BME280;5113;41.822;23.564;2023-09-12T00:36:13;-11176.22;;;8.75;100.00
10145;BME280;5113;41.822;23.564;2023-09-12T00:39:19;-11180.16;;;8.89;100.00
10145;BME280;5113;41.822;23.564;2023-09-12T00:42:26;-11183.25;;;9.00;100.00
10145;BME280;5113;41.822;23.564;2023-09-12T00:45:32;-11188.59;;;9.19;100.00
10145;BME280;5113;41.822;23.564;2023-09-12T00:48:38;-11177.50;;;8.79;100.00
10145;BME280;5113;41.822;23.564;2023-09-12T00:51:48;-11177.22;;;8.78;100.00
10145;BME280;5113;41.822;23.564;2023-09-12T00:54:55;-11175.66;;;8.73;100.00
10145;BME280;5113;41.822;23.564;2023-09-12T00:58:02;-11160.63;;;8.18;100.00
10145;BME280;5113;41.822;23.564;2023-09-12T01:01:08;-11155.84;;;8.01;100.00
10145;BME280;5113;41.822;23.564;2023-09-12T01:04:15;-11160.78;;;8.19;100.00
10145;BME280;5113;41.822;23.564;2023-09-12T01:07:41;-11163.44;;;8.28;100.00
10145;BME280;5113;41.822;23.564;2023-09-12T01:10:49;-11188.31;;;9.18;100.00
10145;BME280;5113;41.822;23.564;2023-09-12T01:13:58;-11185.22;;;9.07;100.00
10145;BME280;5113;41.822;23.564;2023-09-12T01:17:04;-11179.03;;;8.85;100.00
10145;BME280;5113;41.822;23.564;2023-09-12T01:20:14;-11196.91;;;9.49;100.00
10145;BME280;5113;41.822;23.564;2023-09-12T01:23:36;-11187.91;;;9.17;100.00
10145;BME280;5113;41.822;23.564;2023-09-12T01:26:57;-11180.16;;;8.89;100.00
10145;BME280;5113;41.822;23.564;2023-09-12T01:30:08;-11193.09;;;9.36;100.00
10145;BME280;5113;41.822;23.564;2023-09-12T01:33:16;-11193.25;;;9.36;100.00
10145;BME280;5113;41.822;23.564;2023-09-12T01:36:22;-11182.84;;;8.99;100.00
10145;BME280;5113;41.822;23.564;2023-09-12T01:39:29;-11183.81;;;9.02;100.00
10145;BME280;5113;41.822;23.564;2023-09-12T01:42:37;-11188.31;;;9.18;100.00
10145;BME280;5113;41.822;23.564;2023-09-12T01:45:46;-11182.00;;;8.96;100.00
10145;BME280;5113;41.822;23.564;2023-09-12T01:48:55;-11177.78;;;8.80;100.00
10145;BME280;5113;41.822;23.564;2023-09-12T01:52:02;-11176.94;;;8.77;100.00
10145;BME280;5113;41.822;23.564;2023-09-12T01:55:10;-11187.75;;;9.16;100.00
10145;BME280;5113;41.822;23.564;2023-09-12T01:58:17;-11180.03;;;8.88;100.00
10145;BME280;5113;41.822;23.564;2023-09-12T02:01:25;-11195.91;;;9.46;100.00
10145;BME280;5113;41.822;23.564;2023-09-12T02:04:32;-11165.28;;;8.35;100.00
10145;BME280;5113;41.822;23.564;2023-09-12T02:07:41;-11166.13;;;8.38;100.00
10145;BME280;5113;41.822;23.564;2023-09-12T02:10:47;-11173.72;;;8.66;100.00
10145;BME280;5113;41.822;23.564;2023-09-12T02:13:53;-11161.63;;;8.22;100.00
10145;BME280;5113;41.822;23.564;2023-09-12T02:17:01;-11162.75;;;8.26;100.00
10145;BME280;5113;41.822;23.564;2023-09-12T02:20:08;-11163.31;;;8.28;100.00
10145;BME280;5113;41.822;23.564;2023-09-12T02:23:16;-11159.94;;;8.16;100.00
10145;BME280;5113;41.822;23.564;2023-09-12T02:26:22;-11150.94;;;7.83;100.00
10145;BME280;5113;41.822;23.564;2023-09-12T02:29:28;-11151.63;;;7.86;100.00
10145;BME280;5113;41.822;23.564;2023-09-12T02:32:37;-11157.69;;;8.08;100.00
10145;BME280;5113;41.822;23.564;2023-09-12T02:35:42;-11158.25;;;8.10;100.00
10145;BME280;5113;41.822;23.564;2023-09-12T02:38:49;-11163.59;;;8.29;100.00
10145;BME280;5113;41.822;23.564;2023-09-12T02:41:55;-11146.16;;;7.66;100.00
10145;BME280;5113;41.822;23.564;2023-09-12T02:45:01;-11133.22;;;7.19;100.00
10145;BME280;5113;41.822;23.564;2023-09-12T02:48:09;-11131.81;;;7.14;100.00
10145;BME280;5113;41.822;23.564;2023-09-12T02:51:15;-11140.25;;;7.45;100.00
10145;BME280;5113;41.822;23.564;2023-09-12T02:54:22;-11131.25;;;7.12;100.00
10145;BME280;5113;41.822;23.564;2023-09-12T02:57:28;-11132.81;;;7.18;100.00
10145;BME280;5113;41.822;23.564;2023-09-12T03:00:37;-11135.34;;;7.27;100.00
10145;BME280;5113;41.822;23.564;2023-09-12T03:03:47;-11147.56;;;7.71;100.00
10145;BME280;5113;41.822;23.564;2023-09-12T03:06:53;-11156.97;;;8.05;100.00
10145;BME280;5113;41.822;23.564;2023-09-12T03:10:00;-11168.22;;;8.46;100.00
10145;BME280;5113;41.822;23.564;2023-09-12T03:13:06;-11166.97;;;8.41;100.00
10145;BME280;5113;41.822;23.564;2023-09-12T03:16:14;-11164.28;;;8.32;100.00
10145;BME280;5113;41.822;23.564;2023-09-12T03:19:22;-11163.03;;;8.27;100.00
10145;BME280;5113;41.822;23.564;2023-09-12T03:22:28;-11170.47;;;8.54;100.00
10145;BME280;5113;41.822;23.564;2023-09-12T03:25:35;-11161.91;;;8.23;100.00
10145;BME280;5113;41.822;23.564;2023-09-12T03:28:42;-11148.13;;;7.73;100.00
10145;BME280;5113;41.822;23.564;2023-09-12T03:31:49;-11154.88;;;7.98;100.00
10145;BME280;5113;41.822;23.564;2023-09-12T03:34:57;-11149.25;;;7.77;100.00
10145;BME280;5113;41.822;23.564;2023-09-12T03:38:03;-11147.28;;;7.70;100.00
10145;BME280;5113;41.822;23.564;2023-09-12T03:41:09;-11149.81;;;7.79;100.00
10145;BME280;5113;41.822;23.564;2023-09-12T03:44:16;-11158.25;;;8.10;100.00
10145;BME280;5113;41.822;23.564;2023-09-12T03:47:23;-11153.03;;;7.91;100.00
10145;BME280;5113;41.822;23.564;2023-09-12T03:50:30;-11150.09;;;7.80;100.00
10145;BME280;5113;41.822;23.564;2023-09-12T03:53:37;-11154.88;;;7.98;100.00
10145;BME280;5113;41.822;23.564;2023-09-12T03:56:43;-11145.59;;;7.64;100.00
10145;BME280;5113;41.822;23.564;2023-09-12T03:59:49;-11144.75;;;7.61;100.00
10145;BME280;5113;41.822;23.564;2023-09-12T04:02:57;-11136.03;;;7.29;100.00
10145;BME280;5113;41.822;23.564;2023-09-12T04:06:04;-11143.06;;;7.55;100.00
10145;BME280;5113;41.822;23.564;2023-09-12T04:09:10;-11146.16;;;7.66;100.00
10145;BME280;5113;41.822;23.564;2023-09-12T04:12:17;-11142.09;;;7.51;100.00
10145;BME280;5113;41.822;23.564;2023-09-12T04:15:23;-11135.91;;;7.29;100.00
10145;BME280;5113;41.822;23.564;2023-09-12T04:18:30;-11153.03;;;7.91;100.00
10145;BME280;5113;41.822;23.564;2023-09-12T04:21:37;-11164.72;;;8.33;100.00
10145;BME280;5113;41.822;23.564;2023-09-12T04:24:44;-11163.03;;;8.27;100.00
10145;BME280;5113;41.822;23.564;2023-09-12T04:27:51;-11151.22;;;7.84;100.00
10145;BME280;5113;41.822;23.564;2023-09-12T04:31:04;-11153.19;;;7.91;100.00
10145;BME280;5113;41.822;23.564;2023-09-12T04:34:10;-11139.97;;;7.44;100.00
10145;BME280;5113;41.822;23.564;2023-09-12T04:37:18;-11151.50;;;7.85;100.00
10145;BME280;5113;41.822;23.564;2023-09-12T04:40:24;-11164.16;;;8.31;100.00
10145;BME280;5113;41.822;23.564;2023-09-12T04:43:31;-11155.44;;;8.00;100.00
10145;BME280;5113;41.822;23.564;2023-09-12T04:46:37;-11165.84;;;8.37;100.00
10145;BME280;5113;41.822;23.564;2023-09-12T04:49:47;-11162.75;;;8.26;100.00
10145;BME280;5113;41.822;23.564;2023-09-12T04:52:55;-11171.19;;;8.56;100.00
10145;BME280;5113;41.822;23.564;2023-09-12T04:56:02;-11192.13;;;9.32;100.00
10145;BME280;5113;41.822;23.564;2023-09-12T04:59:08;-11222.06;;;10.40;100.00
10145;BME280;5113;41.822;23.564;2023-09-12T05:02:15;-11219.25;;;10.30;100.00
10145;BME280;5113;41.822;23.564;2023-09-12T05:05:21;-11199.72;;;9.59;100.00
10145;BME280;5113;41.822;23.564;2023-09-12T05:08:29;-11201.13;;;9.65;100.00
10145;BME280;5113;41.822;23.564;2023-09-12T05:11:35;-11203.22;;;9.72;100.00
10145;BME280;5113;41.822;23.564;2023-09-12T05:14:42;-11212.50;;;10.06;100.00
10145;BME280;5113;41.822;23.564;2023-09-12T05:17:48;-11229.94;;;10.69;100.00
10145;BME280;5113;41.822;23.564;2023-09-12T05:20:55;-11227.97;;;10.62;100.00
10145;BME280;5113;41.822;23.564;2023-09-12T05:24:03;-11227.41;;;10.59;100.00
10145;BME280;5113;41.822;23.564;2023-09-12T05:27:10;-11221.22;;;10.37;100.00
10145;BME280;5113;41.822;23.564;2023-09-12T05:30:17;-11236.72;;;10.93;100.00
10145;BME280;5113;41.822;23.564;2023-09-12T05:33:23;-11248.53;;;11.36;100.00
10145;BME280;5113;41.822;23.564;2023-09-12T05:36:30;-11259.06;;;11.74;100.00
10145;BME280;5113;41.822;23.564;2023-09-12T05:39:38;-11264.84;;;11.95;100.00
10145;BME280;5113;41.822;23.564;2023-09-12T05:42:45;-11267.38;;;12.04;100.00
10145;BME280;5113;41.822;23.564;2023-09-12T05:45:52;-11266.13;;;11.99;100.00
10145;BME280;5113;41.822;23.564;2023-09-12T05:48:58;-11274.69;;;12.30;100.00
10145;BME280;5113;41.822;23.564;2023-09-12T05:52:05;-11285.41;;;12.69;100.00
10145;BME280;5113;41.822;23.564;2023-09-12T05:55:12;-11270.63;;;12.15;100.00
10145;BME280;5113;41.822;23.564;2023-09-12T05:58:19;-11277.66;;;12.41;100.00
10145;BME280;5113;41.822;23.564;2023-09-12T06:01:25;-11298.50;;;13.16;100.00
10145;BME280;5113;41.822;23.564;2023-09-12T06:04:32;-11295.66;;;13.06;100.00
10145;BME280;5113;41.822;23.564;2023-09-12T06:07:38;-11308.06;;;13.50;100.00
10145;BME280;5113;41.822;23.564;2023-09-12T06:10:47;-11324.81;;;14.11;98.65
10145;BME280;5113;41.822;23.564;2023-09-12T06:13:54;-11330.72;;;14.32;94.63
10145;BME280;5113;41.822;23.564;2023-09-12T06:17:00;-11338.75;;;14.61;94.87
10145;BME280;5113;41.822;23.564;2023-09-12T06:20:08;-11336.50;;;14.53;93.82
10145;BME280;5113;41.822;23.564;2023-09-12T06:23:14;-11337.22;;;14.56;92.38
10145;BME280;5113;41.822;23.564;2023-09-12T06:26:22;-11353.69;;;15.15;88.60
10145;BME280;5113;41.822;23.564;2023-09-12T06:29:31;-11344.25;;;14.81;87.38
10145;BME280;5113;41.822;23.564;2023-09-12T06:32:38;-11359.75;;;15.37;85.05
10145;BME280;5113;41.822;23.564;2023-09-12T06:35:48;-11359.03;;;15.34;83.07
10145;BME280;5113;41.822;23.564;2023-09-12T06:38:55;-11362.28;;;15.46;82.07
10145;BME280;5113;41.822;23.564;2023-09-12T06:42:03;-11370.72;;;15.76;81.33
10145;BME280;5113;41.822;23.564;2023-09-12T06:45:09;-11386.22;;;16.32;77.21
10145;BME280;5113;41.822;23.564;2023-09-12T06:48:16;-11381.72;;;16.16;79.64
10145;BME280;5113;41.822;23.564;2023-09-12T06:51:24;-11384.81;;;16.27;79.88
10145;BME280;5113;41.822;23.564;2023-09-12T06:54:36;-11406.25;;;17.04;74.40
10145;BME280;5113;41.822;23.564;2023-09-12T06:57:44;-11399.75;;;16.81;73.01
10145;BME280;5113;41.822;23.564;2023-09-12T07:00:51;-11407.22;;;17.08;70.75
10145;BME280;5113;41.822;23.564;2023-09-12T07:03:58;-11399.75;;;16.81;71.65
10145;BME280;5113;41.822;23.564;2023-09-12T07:07:04;-11419.22;;;17.51;67.29
10145;BME280;5113;41.822;23.564;2023-09-12T07:10:10;-11438.53;;;18.21;65.77
10145;BME280;5113;41.822;23.564;2023-09-12T07:13:30;-11417.22;;;17.44;66.84
10145;BME280;5113;41.822;23.564;2023-09-12T07:16:37;-11419.78;;;17.53;67.43
10145;BME280;5113;41.822;23.564;2023-09-12T07:19:43;-11441.75;;;18.32;63.76
10145;BME280;5113;41.822;23.564;2023-09-12T07:22:50;-11454.47;;;18.78;62.31
10145;BME280;5113;41.822;23.564;2023-09-12T07:25:57;-11436.41;;;18.13;62.34
10145;BME280;5113;41.822;23.564;2023-09-12T07:29:05;-11473.50;;;19.46;60.02
10145;BME280;5113;41.822;23.564;2023-09-12T07:32:12;-11449.53;;;18.60;60.13
10145;BME280;5113;41.822;23.564;2023-09-12T07:35:18;-11455.31;;;18.81;59.53
10145;BME280;5113;41.822;23.564;2023-09-12T07:38:28;-11463.63;;;19.11;58.08
10145;BME280;5113;41.822;23.564;2023-09-12T07:42:24;-11471.66;;;19.40;56.91
10145;BME280;5113;41.822;23.564;2023-09-12T07:45:32;-11488.59;;;20.01;55.93
10145;BME280;5113;41.822;23.564;2023-09-12T07:48:42;-11493.66;;;20.19;55.34
10145;BME280;5113;41.822;23.564;2023-09-12T07:51:49;-11501.13;;;20.46;54.67
10145;BME280;5113;41.822;23.564;2023-09-12T07:54:59;-11490.13;;;20.06;56.53
10145;BME280;5113;41.822;23.564;2023-09-12T07:58:05;-11501.00;;;20.46;54.88
10145;BME280;5113;41.822;23.564;2023-09-12T08:01:13;-11496.47;;;20.29;54.20
10145;BME280;5113;41.822;23.564;2023-09-12T08:04:20;-11514.13;;;20.93;53.64
10145;BME280;5113;41.822;23.564;2023-09-12T08:07:26;-11525.25;;;21.33;52.26
10145;BME280;5113;41.822;23.564;2023-09-12T08:10:32;-11531.19;;;21.54;50.94
10145;BME280;5113;41.822;23.564;2023-09-12T08:13:39;-11536.28;;;21.72;51.01
10145;BME280;5113;41.822;23.564;2023-09-12T08:16:47;-11548.81;;;22.18;49.42
10145;BME280;5113;41.822;23.564;2023-09-12T08:19:54;-11551.50;;;22.27;49.69
10145;BME280;5113;41.822;23.564;2023-09-12T08:23:00;-11572.41;;;23.02;49.08
10145;BME280;5113;41.822;23.564;2023-09-12T08:26:07;-11558.69;;;22.53;49.83
10145;BME280;5113;41.822;23.564;2023-09-12T08:29:14;-11566.19;;;22.80;49.60
10145;BME280;5113;41.822;23.564;2023-09-12T08:32:22;-11559.97;;;22.58;49.33
10145;BME280;5113;41.822;23.564;2023-09-12T08:35:28;-11557.44;;;22.49;47.67
10145;BME280;5113;41.822;23.564;2023-09-12T08:38:34;-11581.44;;;23.35;46.76
10145;BME280;5113;41.822;23.564;2023-09-12T08:41:41;-11565.34;;;22.77;46.32
10145;BME280;5113;41.822;23.564;2023-09-12T08:44:48;-11570.97;;;22.97;47.14
10145;BME280;5113;41.822;23.564;2023-09-12T08:47:59;-11569.28;;;22.91;47.42
10145;BME280;5113;41.822;23.564;2023-09-12T08:51:07;-11594.97;;;23.84;44.17
10145;BME280;5113;41.822;23.564;2023-09-12T08:54:14;-11591.31;;;23.70;44.94
10145;BME280;5113;41.822;23.564;2023-09-12T08:57:21;-11609.94;;;24.38;43.62
10145;BME280;5113;41.822;23.564;2023-09-12T09:00:28;-11606.56;;;24.25;43.53
10145;BME280;5113;41.822;23.564;2023-09-12T09:03:39;-11580.44;;;23.31;43.96
10145;BME280;5113;41.822;23.564;2023-09-12T09:06:49;-11606.41;;;24.25;42.83
10145;BME280;5113;41.822;23.564;2023-09-12T09:09:56;-11613.03;;;24.49;41.04
10145;BME280;5113;41.822;23.564;2023-09-12T09:13:03;-11612.47;;;24.47;40.96
10145;BME280;5113;41.822;23.564;2023-09-12T09:16:12;-11608.38;;;24.32;41.75
10145;BME280;5113;41.822;23.564;2023-09-12T09:19:20;-11617.84;;;24.66;41.46
10145;BME280;5113;41.822;23.564;2023-09-12T09:22:27;-11620.66;;;24.76;40.81
10145;BME280;5113;41.822;23.564;2023-09-12T09:25:33;-11632.53;;;25.19;39.51
10145;BME280;5113;41.822;23.564;2023-09-12T09:28:42;-11641.84;;;25.52;39.39
10145;BME280;5113;41.822;23.564;2023-09-12T09:31:50;-11622.66;;;24.83;39.90
10145;BME280;5113;41.822;23.564;2023-09-12T09:34:58;-11624.06;;;24.88;39.39
10145;BME280;5113;41.822;23.564;2023-09-12T09:38:06;-11642.69;;;25.55;39.37
10145;BME280;5113;41.822;23.564;2023-09-12T09:41:13;-11628.72;;;25.05;38.10
10145;BME280;5113;41.822;23.564;2023-09-12T09:44:21;-11643.13;;;25.57;37.92
10145;BME280;5113;41.822;23.564;2023-09-12T09:47:30;-11648.34;;;25.76;38.04
10145;BME280;5113;41.822;23.564;2023-09-12T09:50:38;-11665.84;;;26.39;35.44
10145;BME280;5113;41.822;23.564;2023-09-12T09:53:45;-11668.13;;;26.47;35.50
10145;BME280;5113;41.822;23.564;2023-09-12T09:56:56;-11662.59;;;26.27;35.00
10145;BME280;5113;41.822;23.564;2023-09-12T10:00:03;-11667.13;;;26.43;34.57
10145;BME280;5113;41.822;23.564;2023-09-12T10:03:14;-11666.72;;;26.42;34.26
10145;BME280;5113;41.822;23.564;2023-09-12T10:06:27;-11683.38;;;27.02;33.52
10145;BME280;5113;41.822;23.564;2023-09-12T10:09:34;-11690.44;;;27.27;33.03
10145;BME280;5113;41.822;23.564;2023-09-12T10:12:45;-11697.50;;;27.52;30.59
10145;BME280;5113;41.822;23.564;2023-09-12T10:15:55;-11677.72;;;26.81;32.22
10145;BME280;5113;41.822;23.564;2023-09-12T10:19:08;-11680.13;;;26.90;31.42
10145;BME280;5113;41.822;23.564;2023-09-12T10:22:21;-11676.03;;;26.75;32.05
10145;BME280;5113;41.822;23.564;2023-09-12T10:25:28;-11697.34;;;27.52;31.31
10145;BME280;5113;41.822;23.564;2023-09-12T10:28:35;-11701.03;;;27.65;30.58
10145;BME280;5113;41.822;23.564;2023-09-12T10:31:42;-11689.59;;;27.24;30.91
10145;BME280;5113;41.822;23.564;2023-09-12T10:34:49;-11692.69;;;27.35;30.08
10145;BME280;5113;41.822;23.564;2023-09-12T10:38:00;-11723.63;;;28.46;29.52
10145;BME280;5113;41.822;23.564;2023-09-12T10:41:11;-11715.00;;;28.15;29.09
10145;BME280;5113;41.822;23.564;2023-09-12T10:44:20;-11717.00;;;28.22;28.75
10145;BME280;5113;41.822;23.564;2023-09-12T10:47:27;-11698.63;;;27.56;30.05
10145;BME280;5113;41.822;23.564;2023-09-12T10:50:34;-11704.56;;;27.78;28.99
10145;BME280;5113;41.822;23.564;2023-09-12T10:53:46;-11728.56;;;28.64;28.23
10145;BME280;5113;41.822;23.564;2023-09-12T10:57:04;-11723.19;;;28.45;27.83
10145;BME280;5113;41.822;23.564;2023-09-12T11:00:12;-11721.94;;;28.40;28.18
10145;BME280;5113;41.822;23.564;2023-09-12T11:03:38;-11709.63;;;27.96;27.60
10145;BME280;5113;41.822;23.564;2023-09-12T11:06:46;-11744.69;;;29.22;27.80
10145;BME280;5113;41.822;23.564;2023-09-12T11:10:20;-11713.16;;;28.09;23.53
10145;BME280;5113;41.822;23.564;2023-09-12T11:13:38;-11765.72;;;29.98;24.75
10145;BME280;5113;41.822;23.564;2023-09-12T11:20:25;-11756.53;;;29.65;26.11
10145;BME280;5113;41.822;23.564;2023-09-12T11:23:31;-11720.38;;;28.35;26.95
10145;BME280;5113;41.822;23.564;2023-09-12T11:26:55;-11719.66;;;28.32;26.82
10145;BME280;5113;41.822;23.564;2023-09-12T11:30:06;-11719.53;;;28.32;27.19
10145;BME280;5113;41.822;23.564;2023-09-12T11:33:12;-11722.63;;;28.43;27.95
10145;BME280;5113;41.822;23.564;2023-09-12T11:36:19;-11756.81;;;29.66;27.98
10145;BME280;5113;41.822;23.564;2023-09-12T11:39:26;-11747.50;;;29.32;26.67
10145;BME280;5113;41.822;23.564;2023-09-12T11:42:39;-11776.59;;;30.37;26.91
10145;BME280;5113;41.822;23.564;2023-09-12T11:45:46;-11773.22;;;30.25;26.00
10145;BME280;5113;41.822;23.564;2023-09-12T11:48:53;-11728.84;;;28.65;26.63
10145;BME280;5113;41.822;23.564;2023-09-12T11:51:59;-11745.81;;;29.26;27.52
10145;BME280;5113;41.822;23.564;2023-09-12T11:55:06;-11741.56;;;29.11;26.81
10145;BME280;5113;41.822;23.564;2023-09-12T11:58:15;-11728.00;;;28.62;27.31
10145;BME280;5113;41.822;23.564;2023-09-12T12:01:22;-11740.72;;;29.08;26.87
10145;BME280;5113;41.822;23.564;2023-09-12T12:04:28;-11748.63;;;29.36;25.87
10145;BME280;5113;41.822;23.564;2023-09-12T12:07:35;-11757.66;;;29.69;25.87
10145;BME280;5113;41.822;23.564;2023-09-12T12:10:43;-11751.47;;;29.46;26.16
10145;BME280;5113;41.822;23.564;2023-09-12T12:13:51;-11749.06;;;29.38;26.62
10145;BME280;5113;41.822;23.564;2023-09-12T12:17:05;-11776.31;;;30.36;25.99
10145;BME280;5113;41.822;23.564;2023-09-12T12:20:12;-11774.06;;;30.28;25.38
10145;BME280;5113;41.822;23.564;2023-09-12T12:23:18;-11773.91;;;30.27;26.67
10145;BME280;5113;41.822;23.564;2023-09-12T12:26:25;-11742.97;;;29.16;26.21
10145;BME280;5113;41.822;23.564;2023-09-12T12:29:33;-11771.81;;;30.19;25.77
10145;BME280;5113;41.822;23.564;2023-09-12T12:32:40;-11793.41;;;30.97;25.68
10145;BME280;5113;41.822;23.564;2023-09-12T12:35:46;-11763.19;;;29.88;27.87
10145;BME280;5113;41.822;23.564;2023-09-12T12:38:58;-11777.72;;;30.41;26.67
10145;BME280;5113;41.822;23.564;2023-09-12T12:42:05;-11746.94;;;29.30;28.71
10145;BME280;5113;41.822;23.564;2023-09-12T12:45:15;-11777.72;;;30.41;27.60
10145;BME280;5113;41.822;23.564;2023-09-12T12:48:32;-11772.94;;;30.23;27.08
10145;BME280;5113;41.822;23.564;2023-09-12T12:51:41;-11777.59;;;30.40;29.01
10145;BME280;5113;41.822;23.564;2023-09-12T12:54:48;-11752.59;;;29.50;29.64
10145;BME280;5113;41.822;23.564;2023-09-12T12:57:57;-11747.22;;;29.31;29.56
10145;BME280;5113;41.822;23.564;2023-09-12T13:01:05;-11740.44;;;29.07;30.66
10145;BME280;5113;41.822;23.564;2023-09-12T13:04:11;-11752.88;;;29.51;29.90
10145;BME280;5113;41.822;23.564;2023-09-12T13:07:18;-11759.66;;;29.76;29.56
10145;BME280;5113;41.822;23.564;2023-09-12T13:10:24;-11775.19;;;30.32;29.88
10145;BME280;5113;41.822;23.564;2023-09-12T13:13:31;-11755.41;;;29.61;30.13
10145;BME280;5113;41.822;23.564;2023-09-12T13:16:39;-11767.56;;;30.04;29.92
10145;BME280;5113;41.822;23.564;2023-09-12T13:19:47;-11761.63;;;29.83;26.92
10145;BME280;5113;41.822;23.564;2023-09-12T13:22:53;-11773.06;;;30.24;27.18
10145;BME280;5113;41.822;23.564;2023-09-12T13:26:00;-11766.72;;;30.01;27.43
10145;BME280;5113;41.822;23.564;2023-09-12T13:29:07;-11752.03;;;29.48;27.64
10145;BME280;5113;41.822;23.564;2023-09-12T13:32:15;-11760.78;;;29.80;26.90
10145;BME280;5113;41.822;23.564;2023-09-12T13:35:23;-11762.06;;;29.84;27.65
10145;BME280;5113;41.822;23.564;2023-09-12T13:38:32;-11763.03;;;29.88;26.95
10145;BME280;5113;41.822;23.564;2023-09-12T13:41:38;-11746.09;;;29.27;26.75
10145;BME280;5113;41.822;23.564;2023-09-12T13:44:46;-11752.31;;;29.49;26.54
10145;BME280;5113;41.822;23.564;2023-09-12T13:47:54;-11748.63;;;29.36;26.66
10145;BME280;5113;41.822;23.564;2023-09-12T13:51:01;-11773.91;;;30.27;26.06
10145;BME280;5113;41.822;23.564;2023-09-12T13:54:07;-11779.28;;;30.46;26.03
10145;BME280;5113;41.822;23.564;2023-09-12T13:57:19;-11749.47;;;29.39;27.14
10145;BME280;5113;41.822;23.564;2023-09-12T14:00:26;-11761.06;;;29.81;25.93
10145;BME280;5113;41.822;23.564;2023-09-12T14:03:41;-11745.81;;;29.26;26.10
10145;BME280;5113;41.822;23.564;2023-09-12T14:06:49;-11762.19;;;29.85;25.99
10145;BME280;5113;41.822;23.564;2023-09-12T14:09:55;-11743.41;;;29.17;26.04
10145;BME280;5113;41.822;23.564;2023-09-12T14:13:02;-11805.56;;;31.41;24.29
10145;BME280;5113;41.822;23.564;2023-09-12T14:16:11;-11797.81;;;31.13;24.94
10145;BME280;5113;41.822;23.564;2023-09-12T14:19:19;-11812.91;;;31.67;24.40
10145;BME280;5113;41.822;23.564;2023-09-12T14:22:27;-11791.44;;;30.90;25.30
10145;BME280;5113;41.822;23.564;2023-09-12T14:25:36;-11759.38;;;29.75;25.46
10145;BME280;5113;41.822;23.564;2023-09-12T14:28:43;-11774.34;;;30.29;25.02
10145;BME280;5113;41.822;23.564;2023-09-12T14:31:50;-11777.31;;;30.39;25.22
10145;BME280;5113;41.822;23.564;2023-09-12T14:35:05;-11742.41;;;29.14;26.26
10145;BME280;5113;41.822;23.564;2023-09-12T14:38:12;-11738.47;;;29.00;26.41
10145;BME280;5113;41.822;23.564;2023-09-12T14:41:18;-11721.78;;;28.40;26.91
10145;BME280;5113;41.822;23.564;2023-09-12T14:44:25;-11746.09;;;29.27;26.33
10145;BME280;5113;41.822;23.564;2023-09-12T14:47:31;-11738.19;;;28.99;26.72
10145;BME280;5113;41.822;23.564;2023-09-12T14:50:39;-11711.75;;;28.04;27.83
10145;BME280;5113;41.822;23.564;2023-09-12T14:53:47;-11690.44;;;27.27;28.10
10145;BME280;5113;41.822;23.564;2023-09-12T14:56:54;-11678.84;;;26.85;29.09
10145;BME280;5113;41.822;23.564;2023-09-12T15:00:01;-11691.00;;;27.29;28.43
10145;BME280;5113;41.822;23.564;2023-09-12T15:03:07;-11694.94;;;27.43;28.69
10145;BME280;5113;41.822;23.564;2023-09-12T15:06:18;-11674.31;;;26.69;29.83
10145;BME280;5113;41.822;23.564;2023-09-12T15:09:26;-11668.97;;;26.50;30.05
10145;BME280;5113;41.822;23.564;2023-09-12T15:12:32;-11679.56;;;26.88;30.75
10145;BME280;5113;41.822;23.564;2023-09-12T15:15:39;-11671.22;;;26.58;30.92
10145;BME280;5113;41.822;23.564;2023-09-12T15:18:46;-11662.59;;;26.27;32.44
10145;BME280;5113;41.822;23.564;2023-09-12T15:21:54;-11664.31;;;26.33;33.00
10145;BME280;5113;41.822;23.564;2023-09-12T15:25:02;-11666.44;;;26.41;32.31
10145;BME280;5113;41.822;23.564;2023-09-12T15:28:08;-11657.66;;;26.09;33.40
10145;BME280;5113;41.822;23.564;2023-09-12T15:31:15;-11655.97;;;26.03;33.19
10145;BME280;5113;41.822;23.564;2023-09-12T15:34:22;-11653.44;;;25.94;33.32
10145;BME280;5113;41.822;23.564;2023-09-12T15:37:29;-11645.25;;;25.64;33.28
10145;BME280;5113;41.822;23.564;2023-09-12T15:40:36;-11638.75;;;25.41;33.81
10145;BME280;5113;41.822;23.564;2023-09-12T15:43:42;-11635.78;;;25.30;33.77
10145;BME280;5113;41.822;23.564;2023-09-12T15:46:50;-11633.38;;;25.22;34.32
10145;BME280;5113;41.822;23.564;2023-09-12T15:49:57;-11628.72;;;25.05;34.53
10145;BME280;5113;41.822;23.564;2023-09-12T15:53:05;-11637.63;;;25.37;34.83
10145;BME280;5113;41.822;23.564;2023-09-12T15:56:12;-11639.03;;;25.42;34.97
10145;BME280;5113;41.822;23.564;2023-09-12T15:59:19;-11607.41;;;24.28;37.85
10145;BME280;5113;41.822;23.564;2023-09-12T16:02:26;-11603.72;;;24.15;38.48
10145;BME280;5113;41.822;23.564;2023-09-12T16:05:32;-11587.06;;;23.55;40.17
10145;BME280;5113;41.822;23.564;2023-09-12T16:08:40;-11592.84;;;23.76;39.58
10145;BME280;5113;41.822;23.564;2023-09-12T16:11:46;-11574.09;;;23.09;42.03
10145;BME280;5113;41.822;23.564;2023-09-12T16:14:53;-11562.09;;;22.65;43.18
10145;BME280;5113;41.822;23.564;2023-09-12T16:18:00;-11571.28;;;22.98;42.60
10145;BME280;5113;41.822;23.564;2023-09-12T16:21:08;-11567.31;;;22.84;43.27
10145;BME280;5113;41.822;23.564;2023-09-12T16:24:15;-11562.22;;;22.66;44.13
10145;BME280;5113;41.822;23.564;2023-09-12T16:27:23;-11555.19;;;22.40;44.59